sensor_id;sensor_type;location;lat;lon;timestamp;temperature;humidity
7174;DHT22;3628;48.654;8.932;2023-07-13T00:00:41;18.30;99.90
7174;DHT22;3628;48.654;8.932;2023-07-13T00:03:07;18.20;99.90
7174;DHT22;3628;48.654;8.932;2023-07-13T00:05:32;18.20;99.90
7174;DHT22;3628;48.654;8.932;2023-07-13T00:07:58;18.10;99.90
7174;DHT22;3628;48.654;8.932;2023-07-13T00:10:24;18.00;99.90
7174;DHT22;3628;48.654;8.932;2023-07-13T00:12:50;18.00;99.90
7174;DHT22;3628;48.654;8.932;2023-07-13T00:15:19;17.90;99.90
7174;DHT22;3628;48.654;8.932;2023-07-13T00:17:48;17.90;99.90
7174;DHT22;3628;48.654;8.932;2023-07-13T00:20:14;17.80;99.90
7174;DHT22;3628;48.654;8.932;2023-07-13T00:22:40;17.70;99.90
7174;DHT22;3628;48.654;8.932;2023-07-13T00:25:06;17.50;99.90
7174;DHT22;3628;48.654;8.932;2023-07-13T00:27:31;17.40;99.90
7174;DHT22;3628;48.654;8.932;2023-07-13T00:29:58;17.30;99.90
7174;DHT22;3628;48.654;8.932;2023-07-13T00:32:24;17.10;99.90
7174;DHT22;3628;48.654;8.932;2023-07-13T00:34:52;17.00;99.90
7174;DHT22;3628;48.654;8.932;2023-07-13T00:37:18;17.00;99.90
7174;DHT22;3628;48.654;8.932;2023-07-13T00:39:43;16.90;99.90
7174;DHT22;3628;48.654;8.932;2023-07-13T00:42:09;16.80;99.90
7174;DHT22;3628;48.654;8.932;2023-07-13T00:44:35;16.70;99.90
7174;DHT22;3628;48.654;8.932;2023-07-13T00:47:01;16.70;99.90
7174;DHT22;3628;48.654;8.932;2023-07-13T00:49:30;16.70;99.90
7174;DHT22;3628;48.654;8.932;2023-07-13T00:52:00;16.70;99.90
7174;DHT22;3628;48.654;8.932;2023-07-13T00:54:30;16.70;99.90
7174;DHT22;3628;48.654;8.932;2023-07-13T00:57:00;16.70;99.90
7174;DHT22;3628;48.654;8.932;2023-07-13T00:59:27;16.70;99.90
7174;DHT22;3628;48.654;8.932;2023-07-13T01:01:53;16.70;99.90
7174;DHT22;3628;48.654;8.932;2023-07-13T01:04:20;16.70;99.90
7174;DHT22;3628;48.654;8.932;2023-07-13T01:06:46;16.70;99.90
7174;DHT22;3628;48.654;8.932;2023-07-13T01:09:12;16.80;99.90
7174;DHT22;3628;48.654;8.932;2023-07-13T01:11:38;16.90;99.90
7174;DHT22;3628;48.654;8.932;2023-07-13T01:14:04;16.90;99.90
7174;DHT22;3628;48.654;8.932;2023-07-13T01:16:36;17.00;99.90
7174;DHT22;3628;48.654;8.932;2023-07-13T01:19:12;17.00;99.90
7174;DHT22;3628;48.654;8.932;2023-07-13T01:21:39;17.00;99.90
7174;DHT22;3628;48.654;8.932;2023-07-13T01:24:08;17.00;99.90
7174;DHT22;3628;48.654;8.932;2023-07-13T01:26:34;17.10;99.90
7174;DHT22;3628;48.654;8.932;2023-07-13T01:29:00;17.00;99.90
7174;DHT22;3628;48.654;8.932;2023-07-13T01:31:25;16.90;99.90
7174;DHT22;3628;48.654;8.932;2023-07-13T01:33:51;16.90;99.90
7174;DHT22;3628;48.654;8.932;2023-07-13T01:36:17;16.80;99.90
7174;DHT22;3628;48.654;8.932;2023-07-13T01:38:42;16.70;99.90
7174;DHT22;3628;48.654;8.932;2023-07-13T01:41:08;16.60;99.90
7174;DHT22;3628;48.654;8.932;2023-07-13T01:43:33;16.50;99.90
7174;DHT22;3628;48.654;8.932;2023-07-13T01:45:59;16.40;99.90
7174;DHT22;3628;48.654;8.932;2023-07-13T01:48:24;16.40;99.90
7174;DHT22;3628;48.654;8.932;2023-07-13T01:50:50;16.30;99.90
7174;DHT22;3628;48.654;8.932;2023-07-13T01:53:16;16.30;99.90
7174;DHT22;3628;48.654;8.932;2023-07-13T01:55:42;16.20;99.90
7174;DHT22;3628;48.654;8.932;2023-07-13T01:58:07;16.20;99.90
7174;DHT22;3628;48.654;8.932;2023-07-13T02:00:33;16.10;99.90
7174;DHT22;3628;48.654;8.932;2023-07-13T02:02:59;16.00;99.90
7174;DHT22;3628;48.654;8.932;2023-07-13T02:05:25;16.00;99.90
7174;DHT22;3628;48.654;8.932;2023-07-13T02:07:50;16.00;99.90
7174;DHT22;3628;48.654;8.932;2023-07-13T02:10:16;15.90;99.90
7174;DHT22;3628;48.654;8.932;2023-07-13T02:12:42;15.90;99.90
7174;DHT22;3628;48.654;8.932;2023-07-13T02:15:09;15.90;99.90
7174;DHT22;3628;48.654;8.932;2023-07-13T02:17:35;15.90;99.90
7174;DHT22;3628;48.654;8.932;2023-07-13T02:20:02;15.80;99.90
7174;DHT22;3628;48.654;8.932;2023-07-13T02:22:28;15.80;99.90
7174;DHT22;3628;48.654;8.932;2023-07-13T02:24:54;15.70;99.90
7174;DHT22;3628;48.654;8.932;2023-07-13T02:27:19;15.70;99.90
7174;DHT22;3628;48.654;8.932;2023-07-13T02:29:45;15.60;99.90
7174;DHT22;3628;48.654;8.932;2023-07-13T02:32:10;15.60;99.90
7174;DHT22;3628;48.654;8.932;2023-07-13T02:34:36;15.50;99.90
7174;DHT22;3628;48.654;8.932;2023-07-13T02:37:02;15.50;99.90
7174;DHT22;3628;48.654;8.932;2023-07-13T02:39:28;15.40;99.90
7174;DHT22;3628;48.654;8.932;2023-07-13T02:41:53;15.30;99.90
7174;DHT22;3628;48.654;8.932;2023-07-13T02:44:19;15.30;99.90
7174;DHT22;3628;48.654;8.932;2023-07-13T02:46:44;15.20;99.90
7174;DHT22;3628;48.654;8.932;2023-07-13T02:49:10;15.20;99.90
7174;DHT22;3628;48.654;8.932;2023-07-13T02:51:35;15.10;99.90
7174;DHT22;3628;48.654;8.932;2023-07-13T02:54:02;15.00;99.90
7174;DHT22;3628;48.654;8.932;2023-07-13T02:56:30;15.00;99.90
7174;DHT22;3628;48.654;8.932;2023-07-13T02:58:56;14.90;99.90
7174;DHT22;3628;48.654;8.932;2023-07-13T03:01:22;14.80;99.90
7174;DHT22;3628;48.654;8.932;2023-07-13T03:03:48;14.80;99.90
7174;DHT22;3628;48.654;8.932;2023-07-13T03:06:15;14.90;99.90
7174;DHT22;3628;48.654;8.932;2023-07-13T03:08:42;14.90;99.90
7174;DHT22;3628;48.654;8.932;2023-07-13T03:11:10;14.90;99.90
7174;DHT22;3628;48.654;8.932;2023-07-13T03:13:37;14.90;99.90
7174;DHT22;3628;48.654;8.932;2023-07-13T03:16:04;15.00;99.90
7174;DHT22;3628;48.654;8.932;2023-07-13T03:18:29;15.00;99.90
7174;DHT22;3628;48.654;8.932;2023-07-13T03:20:55;15.00;99.90
7174;DHT22;3628;48.654;8.932;2023-07-13T03:23:21;15.10;99.90
7174;DHT22;3628;48.654;8.932;2023-07-13T03:25:47;15.10;99.90
7174;DHT22;3628;48.654;8.932;2023-07-13T03:28:13;15.10;99.90
7174;DHT22;3628;48.654;8.932;2023-07-13T03:30:40;15.10;99.90
7174;DHT22;3628;48.654;8.932;2023-07-13T03:33:05;15.10;99.90
7174;DHT22;3628;48.654;8.932;2023-07-13T03:35:31;15.10;99.90
7174;DHT22;3628;48.654;8.932;2023-07-13T03:37:58;15.10;99.90
7174;DHT22;3628;48.654;8.932;2023-07-13T03:40:24;15.10;99.90
7174;DHT22;3628;48.654;8.932;2023-07-13T03:42:51;15.10;99.90
7174;DHT22;3628;48.654;8.932;2023-07-13T03:45:17;15.10;99.90
7174;DHT22;3628;48.654;8.932;2023-07-13T03:47:43;15.20;99.90
7174;DHT22;3628;48.654;8.932;2023-07-13T03:50:08;15.20;99.90
7174;DHT22;3628;48.654;8.932;2023-07-13T03:52:34;15.30;99.90
7174;DHT22;3628;48.654;8.932;2023-07-13T03:55:00;15.30;99.90
7174;DHT22;3628;48.654;8.932;2023-07-13T03:57:25;15.40;99.90
7174;DHT22;3628;48.654;8.932;2023-07-13T03:59:51;15.40;99.90
7174;DHT22;3628;48.654;8.932;2023-07-13T04:02:16;15.50;99.90
7174;DHT22;3628;48.654;8.932;2023-07-13T04:04:43;15.50;99.90
7174;DHT22;3628;48.654;8.932;2023-07-13T04:07:08;15.60;99.90
7174;DHT22;3628;48.654;8.932;2023-07-13T04:09:35;15.50;99.90
7174;DHT22;3628;48.654;8.932;2023-07-13T04:12:00;15.50;99.90
7174;DHT22;3628;48.654;8.932;2023-07-13T04:14:26;15.50;99.90
7174;DHT22;3628;48.654;8.932;2023-07-13T04:16:52;15.40;99.90
7174;DHT22;3628;48.654;8.932;2023-07-13T04:19:20;15.40;99.90
7174;DHT22;3628;48.654;8.932;2023-07-13T04:21:45;15.40;99.90
7174;DHT22;3628;48.654;8.932;2023-07-13T04:24:11;15.40;99.90
7174;DHT22;3628;48.654;8.932;2023-07-13T04:26:37;15.30;99.90
7174;DHT22;3628;48.654;8.932;2023-07-13T04:29:04;15.30;99.90
7174;DHT22;3628;48.654;8.932;2023-07-13T04:31:30;15.30;99.90
7174;DHT22;3628;48.654;8.932;2023-07-13T04:33:55;15.30;99.90
7174;DHT22;3628;48.654;8.932;2023-07-13T04:36:22;15.30;99.90
7174;DHT22;3628;48.654;8.932;2023-07-13T04:38:47;15.30;99.90
7174;DHT22;3628;48.654;8.932;2023-07-13T04:41:14;15.30;99.90
7174;DHT22;3628;48.654;8.932;2023-07-13T04:43:40;15.30;99.90
7174;DHT22;3628;48.654;8.932;2023-07-13T04:46:11;15.30;99.90
7174;DHT22;3628;48.654;8.932;2023-07-13T04:48:37;15.40;99.90
7174;DHT22;3628;48.654;8.932;2023-07-13T04:51:04;15.40;99.90
7174;DHT22;3628;48.654;8.932;2023-07-13T04:53:30;15.40;99.90
7174;DHT22;3628;48.654;8.932;2023-07-13T04:55:56;15.50;99.90
7174;DHT22;3628;48.654;8.932;2023-07-13T04:58:22;15.50;99.90
7174;DHT22;3628;48.654;8.932;2023-07-13T05:00:48;15.50;99.90
7174;DHT22;3628;48.654;8.932;2023-07-13T05:03:14;15.60;99.90
7174;DHT22;3628;48.654;8.932;2023-07-13T05:05:39;15.70;99.90
7174;DHT22;3628;48.654;8.932;2023-07-13T05:08:05;15.90;99.90
7174;DHT22;3628;48.654;8.932;2023-07-13T05:10:32;16.00;99.90
7174;DHT22;3628;48.654;8.932;2023-07-13T05:12:58;16.10;99.90
7174;DHT22;3628;48.654;8.932;2023-07-13T05:15:24;16.30;99.90
7174;DHT22;3628;48.654;8.932;2023-07-13T05:17:50;16.30;99.90
7174;DHT22;3628;48.654;8.932;2023-07-13T05:20:17;16.20;99.90
7174;DHT22;3628;48.654;8.932;2023-07-13T05:22:43;16.30;99.90
7174;DHT22;3628;48.654;8.932;2023-07-13T05:25:09;16.40;99.90
7174;DHT22;3628;48.654;8.932;2023-07-13T05:27:35;16.50;99.90
7174;DHT22;3628;48.654;8.932;2023-07-13T05:30:02;16.60;99.90
7174;DHT22;3628;48.654;8.932;2023-07-13T05:32:28;16.70;99.90
7174;DHT22;3628;48.654;8.932;2023-07-13T05:34:54;16.80;99.90
7174;DHT22;3628;48.654;8.932;2023-07-13T05:37:19;16.90;99.90
7174;DHT22;3628;48.654;8.932;2023-07-13T05:39:45;17.00;99.90
7174;DHT22;3628;48.654;8.932;2023-07-13T05:42:10;17.10;99.90
7174;DHT22;3628;48.654;8.932;2023-07-13T05:44:36;17.20;99.90
7174;DHT22;3628;48.654;8.932;2023-07-13T05:47:01;17.20;99.90
7174;DHT22;3628;48.654;8.932;2023-07-13T05:49:27;17.20;99.90
7174;DHT22;3628;48.654;8.932;2023-07-13T05:51:53;17.20;99.90
7174;DHT22;3628;48.654;8.932;2023-07-13T05:54:18;17.20;99.90
7174;DHT22;3628;48.654;8.932;2023-07-13T05:56:44;17.30;99.90
7174;DHT22;3628;48.654;8.932;2023-07-13T05:59:10;17.30;99.90
7174;DHT22;3628;48.654;8.932;2023-07-13T06:01:35;17.40;99.90
7174;DHT22;3628;48.654;8.932;2023-07-13T06:04:01;17.50;99.90
7174;DHT22;3628;48.654;8.932;2023-07-13T06:06:27;17.70;99.90
7174;DHT22;3628;48.654;8.932;2023-07-13T06:08:53;17.90;99.90
7174;DHT22;3628;48.654;8.932;2023-07-13T06:11:21;18.00;99.90
7174;DHT22;3628;48.654;8.932;2023-07-13T06:13:47;18.20;99.90
7174;DHT22;3628;48.654;8.932;2023-07-13T06:16:13;18.40;99.90
7174;DHT22;3628;48.654;8.932;2023-07-13T06:18:40;18.60;99.90
7174;DHT22;3628;48.654;8.932;2023-07-13T06:21:16;18.90;99.90
7174;DHT22;3628;48.654;8.932;2023-07-13T06:23:43;19.20;99.90
7174;DHT22;3628;48.654;8.932;2023-07-13T06:26:09;19.60;99.90
7174;DHT22;3628;48.654;8.932;2023-07-13T06:28:36;19.80;99.90
7174;DHT22;3628;48.654;8.932;2023-07-13T06:31:02;20.10;99.90
7174;DHT22;3628;48.654;8.932;2023-07-13T06:33:30;20.40;99.90
7174;DHT22;3628;48.654;8.932;2023-07-13T06:35:55;20.50;99.90
7174;DHT22;3628;48.654;8.932;2023-07-13T06:38:21;20.70;99.90
7174;DHT22;3628;48.654;8.932;2023-07-13T06:40:47;20.90;99.90
7174;DHT22;3628;48.654;8.932;2023-07-13T06:43:12;21.00;99.90
7174;DHT22;3628;48.654;8.932;2023-07-13T06:45:44;21.30;99.90
7174;DHT22;3628;48.654;8.932;2023-07-13T06:48:13;21.50;99.90
7174;DHT22;3628;48.654;8.932;2023-07-13T06:50:38;21.50;99.90
7174;DHT22;3628;48.654;8.932;2023-07-13T06:53:04;21.60;99.90
7174;DHT22;3628;48.654;8.932;2023-07-13T06:55:29;21.60;99.90
7174;DHT22;3628;48.654;8.932;2023-07-13T06:57:55;21.70;99.90
7174;DHT22;3628;48.654;8.932;2023-07-13T07:00:20;21.90;99.90
7174;DHT22;3628;48.654;8.932;2023-07-13T07:02:46;22.00;99.90
7174;DHT22;3628;48.654;8.932;2023-07-13T07:05:12;22.10;99.90
7174;DHT22;3628;48.654;8.932;2023-07-13T07:07:37;22.20;99.90
7174;DHT22;3628;48.654;8.932;2023-07-13T07:10:03;22.50;99.20
7174;DHT22;3628;48.654;8.932;2023-07-13T07:12:29;22.70;98.90
7174;DHT22;3628;48.654;8.932;2023-07-13T07:14:54;22.90;95.80
7174;DHT22;3628;48.654;8.932;2023-07-13T07:17:20;22.90;95.10
7174;DHT22;3628;48.654;8.932;2023-07-13T07:19:45;23.00;93.50
7174;DHT22;3628;48.654;8.932;2023-07-13T07:22:11;23.00;93.60
7174;DHT22;3628;48.654;8.932;2023-07-13T07:24:37;23.20;94.30
7174;DHT22;3628;48.654;8.932;2023-07-13T07:27:03;23.10;91.10
7174;DHT22;3628;48.654;8.932;2023-07-13T07:29:28;23.10;90.90
7174;DHT22;3628;48.654;8.932;2023-07-13T07:31:54;23.10;90.90
7174;DHT22;3628;48.654;8.932;2023-07-13T07:34:19;23.10;89.80
7174;DHT22;3628;48.654;8.932;2023-07-13T07:36:45;23.10;88.60
7174;DHT22;3628;48.654;8.932;2023-07-13T07:39:10;23.20;88.20
7174;DHT22;3628;48.654;8.932;2023-07-13T07:41:37;23.40;88.40
7174;DHT22;3628;48.654;8.932;2023-07-13T07:44:03;23.60;89.20
7174;DHT22;3628;48.654;8.932;2023-07-13T07:46:29;23.80;86.50
7174;DHT22;3628;48.654;8.932;2023-07-13T07:48:56;24.10;86.60
7174;DHT22;3628;48.654;8.932;2023-07-13T07:51:21;24.30;84.60
7174;DHT22;3628;48.654;8.932;2023-07-13T07:53:47;24.30;81.60
7174;DHT22;3628;48.654;8.932;2023-07-13T07:56:13;24.40;80.30
7174;DHT22;3628;48.654;8.932;2023-07-13T07:58:41;24.40;78.20
7174;DHT22;3628;48.654;8.932;2023-07-13T08:01:07;24.40;75.10
7174;DHT22;3628;48.654;8.932;2023-07-13T08:03:33;24.30;75.30
7174;DHT22;3628;48.654;8.932;2023-07-13T08:05:59;24.20;75.30
7174;DHT22;3628;48.654;8.932;2023-07-13T08:08:25;24.30;75.20
7174;DHT22;3628;48.654;8.932;2023-07-13T08:10:50;24.60;75.50
7174;DHT22;3628;48.654;8.932;2023-07-13T08:13:16;24.90;76.00
7174;DHT22;3628;48.654;8.932;2023-07-13T08:15:41;25.20;75.10
7174;DHT22;3628;48.654;8.932;2023-07-13T08:18:07;25.40;74.00
7174;DHT22;3628;48.654;8.932;2023-07-13T08:20:37;25.30;72.80
7174;DHT22;3628;48.654;8.932;2023-07-13T08:23:04;25.30;72.80
7174;DHT22;3628;48.654;8.932;2023-07-13T08:25:29;25.30;72.70
7174;DHT22;3628;48.654;8.932;2023-07-13T08:27:55;25.20;72.10
7174;DHT22;3628;48.654;8.932;2023-07-13T08:30:20;25.30;70.60
7174;DHT22;3628;48.654;8.932;2023-07-13T08:32:46;25.50;70.30
7174;DHT22;3628;48.654;8.932;2023-07-13T08:35:11;25.60;70.00
7174;DHT22;3628;48.654;8.932;2023-07-13T08:37:38;25.90;71.00
7174;DHT22;3628;48.654;8.932;2023-07-13T08:40:05;26.10;69.00
7174;DHT22;3628;48.654;8.932;2023-07-13T08:42:40;26.20;66.70
7174;DHT22;3628;48.654;8.932;2023-07-13T08:45:25;26.30;66.60
7174;DHT22;3628;48.654;8.932;2023-07-13T08:47:59;26.50;64.70
7174;DHT22;3628;48.654;8.932;2023-07-13T08:50:30;26.50;63.90
7174;DHT22;3628;48.654;8.932;2023-07-13T08:52:58;26.50;63.00
7174;DHT22;3628;48.654;8.932;2023-07-13T08:55:34;26.50;62.10
7174;DHT22;3628;48.654;8.932;2023-07-13T08:58:11;26.70;64.10
7174;DHT22;3628;48.654;8.932;2023-07-13T09:00:46;26.80;62.80
7174;DHT22;3628;48.654;8.932;2023-07-13T09:03:21;26.80;61.90
7174;DHT22;3628;48.654;8.932;2023-07-13T09:05:54;26.70;61.40
7174;DHT22;3628;48.654;8.932;2023-07-13T09:08:33;26.70;61.00
7174;DHT22;3628;48.654;8.932;2023-07-13T09:14:00;27.30;61.80
7174;DHT22;3628;48.654;8.932;2023-07-13T09:16:27;27.10;60.00
7174;DHT22;3628;48.654;8.932;2023-07-13T09:18:58;27.30;60.80
7174;DHT22;3628;48.654;8.932;2023-07-13T09:21:29;27.40;58.60
7174;DHT22;3628;48.654;8.932;2023-07-13T09:26:43;27.50;60.50
7174;DHT22;3628;48.654;8.932;2023-07-13T09:29:23;27.30;58.90
7174;DHT22;3628;48.654;8.932;2023-07-13T09:31:54;27.20;58.60
7174;DHT22;3628;48.654;8.932;2023-07-13T09:34:20;27.00;58.40
7174;DHT22;3628;48.654;8.932;2023-07-13T09:36:46;26.80;59.10
7174;DHT22;3628;48.654;8.932;2023-07-13T09:39:20;26.80;59.60
7174;DHT22;3628;48.654;8.932;2023-07-13T09:44:31;26.70;59.30
7174;DHT22;3628;48.654;8.932;2023-07-13T09:46:59;26.70;60.80
7174;DHT22;3628;48.654;8.932;2023-07-13T09:49:34;26.60;62.60
7174;DHT22;3628;48.654;8.932;2023-07-13T09:52:06;25.70;61.50
7174;DHT22;3628;48.654;8.932;2023-07-13T09:54:36;24.80;63.30
7174;DHT22;3628;48.654;8.932;2023-07-13T09:57:08;24.70;64.90
7174;DHT22;3628;48.654;8.932;2023-07-13T09:59:41;24.60;64.70
7174;DHT22;3628;48.654;8.932;2023-07-13T10:02:28;24.60;65.70
7174;DHT22;3628;48.654;8.932;2023-07-13T10:05:03;24.70;65.00
7174;DHT22;3628;48.654;8.932;2023-07-13T10:07:30;24.80;65.00
7174;DHT22;3628;48.654;8.932;2023-07-13T10:10:00;24.90;64.60
7174;DHT22;3628;48.654;8.932;2023-07-13T10:12:28;25.20;63.50
7174;DHT22;3628;48.654;8.932;2023-07-13T10:14:59;25.50;63.10
7174;DHT22;3628;48.654;8.932;2023-07-13T10:17:29;26.00;62.70
7174;DHT22;3628;48.654;8.932;2023-07-13T10:20:02;26.50;62.50
7174;DHT22;3628;48.654;8.932;2023-07-13T10:24:55;26.70;58.60
7174;DHT22;3628;48.654;8.932;2023-07-13T10:27:34;26.50;58.00
7174;DHT22;3628;48.654;8.932;2023-07-13T10:30:27;26.60;58.50
7174;DHT22;3628;48.654;8.932;2023-07-13T10:32:58;26.70;59.10
7174;DHT22;3628;48.654;8.932;2023-07-13T10:35:26;27.00;58.60
7174;DHT22;3628;48.654;8.932;2023-07-13T10:38:01;27.30;57.50
7174;DHT22;3628;48.654;8.932;2023-07-13T10:40:40;27.40;56.90
7174;DHT22;3628;48.654;8.932;2023-07-13T10:43:18;27.60;57.10
7174;DHT22;3628;48.654;8.932;2023-07-13T10:45:45;27.70;57.80
7174;DHT22;3628;48.654;8.932;2023-07-13T10:48:13;27.80;56.80
7174;DHT22;3628;48.654;8.932;2023-07-13T10:50:42;28.00;56.30
7174;DHT22;3628;48.654;8.932;2023-07-13T10:53:28;28.30;55.50
7174;DHT22;3628;48.654;8.932;2023-07-13T10:55:55;28.50;54.40
7174;DHT22;3628;48.654;8.932;2023-07-13T10:58:24;28.80;53.40
7174;DHT22;3628;48.654;8.932;2023-07-13T11:01:03;28.80;51.80
7174;DHT22;3628;48.654;8.932;2023-07-13T11:03:34;29.00;51.70
7174;DHT22;3628;48.654;8.932;2023-07-13T11:18:46;30.00;49.40
7174;DHT22;3628;48.654;8.932;2023-07-13T11:21:21;29.50;47.50
7174;DHT22;3628;48.654;8.932;2023-07-13T11:24:00;29.00;49.00
7174;DHT22;3628;48.654;8.932;2023-07-13T11:26:57;28.90;49.10
7174;DHT22;3628;48.654;8.932;2023-07-13T11:31:59;29.00;47.90
7174;DHT22;3628;48.654;8.932;2023-07-13T11:34:33;28.90;47.60
7174;DHT22;3628;48.654;8.932;2023-07-13T11:37:00;29.20;49.00
7174;DHT22;3628;48.654;8.932;2023-07-13T11:39:32;29.20;49.80
7174;DHT22;3628;48.654;8.932;2023-07-13T11:42:16;29.60;48.30
7174;DHT22;3628;48.654;8.932;2023-07-13T11:44:44;30.10;48.00
7174;DHT22;3628;48.654;8.932;2023-07-13T11:47:19;29.80;47.80
7174;DHT22;3628;48.654;8.932;2023-07-13T11:49:53;29.70;48.30
7174;DHT22;3628;48.654;8.932;2023-07-13T11:52:30;29.60;48.30
7174;DHT22;3628;48.654;8.932;2023-07-13T11:55:00;30.20;48.00
7174;DHT22;3628;48.654;8.932;2023-07-13T11:57:30;30.60;47.30
7174;DHT22;3628;48.654;8.932;2023-07-13T12:00:32;30.80;46.40
7174;DHT22;3628;48.654;8.932;2023-07-13T12:02:54;30.40;46.00
7174;DHT22;3628;48.654;8.932;2023-07-13T12:05:21;30.00;44.30
7174;DHT22;3628;48.654;8.932;2023-07-13T12:07:47;29.80;45.80
7174;DHT22;3628;48.654;8.932;2023-07-13T12:13:09;29.30;44.80
7174;DHT22;3628;48.654;8.932;2023-07-13T12:15:39;29.10;44.10
7174;DHT22;3628;48.654;8.932;2023-07-13T12:18:19;29.10;44.80
7174;DHT22;3628;48.654;8.932;2023-07-13T12:20:46;29.30;45.00
7174;DHT22;3628;48.654;8.932;2023-07-13T12:23:29;29.50;44.90
7174;DHT22;3628;48.654;8.932;2023-07-13T12:25:56;30.10;45.00
7174;DHT22;3628;48.654;8.932;2023-07-13T12:28:46;30.20;42.80
7174;DHT22;3628;48.654;8.932;2023-07-13T12:34:11;30.50;42.70
7174;DHT22;3628;48.654;8.932;2023-07-13T12:36:48;30.90;42.50
7174;DHT22;3628;48.654;8.932;2023-07-13T12:39:20;30.50;40.70
7174;DHT22;3628;48.654;8.932;2023-07-13T12:41:48;30.60;41.80
7174;DHT22;3628;48.654;8.932;2023-07-13T12:44:29;31.00;42.60
7174;DHT22;3628;48.654;8.932;2023-07-13T12:47:03;31.10;40.30
7174;DHT22;3628;48.654;8.932;2023-07-13T12:49:32;31.20;41.20
7174;DHT22;3628;48.654;8.932;2023-07-13T12:52:02;31.40;41.50
7174;DHT22;3628;48.654;8.932;2023-07-13T12:54:30;31.00;41.10
7174;DHT22;3628;48.654;8.932;2023-07-13T12:56:57;31.10;42.00
7174;DHT22;3628;48.654;8.932;2023-07-13T12:59:26;31.20;41.50
7174;DHT22;3628;48.654;8.932;2023-07-13T13:01:54;31.10;42.40
7174;DHT22;3628;48.654;8.932;2023-07-13T13:04:20;31.00;42.00
7174;DHT22;3628;48.654;8.932;2023-07-13T13:06:47;30.80;42.00
7174;DHT22;3628;48.654;8.932;2023-07-13T13:09:15;30.70;41.30
7174;DHT22;3628;48.654;8.932;2023-07-13T13:11:41;30.50;42.50
7174;DHT22;3628;48.654;8.932;2023-07-13T13:14:07;30.50;42.80
7174;DHT22;3628;48.654;8.932;2023-07-13T13:16:55;30.30;44.10
7174;DHT22;3628;48.654;8.932;2023-07-13T13:19:23;30.20;45.60
7174;DHT22;3628;48.654;8.932;2023-07-13T13:21:50;30.10;46.00
7174;DHT22;3628;48.654;8.932;2023-07-13T13:24:20;30.00;45.40
7174;DHT22;3628;48.654;8.932;2023-07-13T13:26:46;29.60;45.00
7174;DHT22;3628;48.654;8.932;2023-07-13T13:29:15;29.30;45.90
7174;DHT22;3628;48.654;8.932;2023-07-13T13:31:41;29.10;46.50
7174;DHT22;3628;48.654;8.932;2023-07-13T13:34:12;29.20;46.50
7174;DHT22;3628;48.654;8.932;2023-07-13T13:36:38;29.20;46.10
7174;DHT22;3628;48.654;8.932;2023-07-13T13:41:46;29.50;47.10
7174;DHT22;3628;48.654;8.932;2023-07-13T13:44:14;29.40;46.80
7174;DHT22;3628;48.654;8.932;2023-07-13T13:46:40;29.50;46.20
7174;DHT22;3628;48.654;8.932;2023-07-13T13:49:14;29.60;46.20
7174;DHT22;3628;48.654;8.932;2023-07-13T13:51:41;29.80;45.10
7174;DHT22;3628;48.654;8.932;2023-07-13T13:54:14;29.90;46.60
7174;DHT22;3628;48.654;8.932;2023-07-13T13:56:51;29.70;47.00
7174;DHT22;3628;48.654;8.932;2023-07-13T13:59:17;29.30;45.50
7174;DHT22;3628;48.654;8.932;2023-07-13T14:01:44;29.00;46.50
7174;DHT22;3628;48.654;8.932;2023-07-13T14:04:16;28.50;47.20
7174;DHT22;3628;48.654;8.932;2023-07-13T14:06:43;28.30;47.20
7174;DHT22;3628;48.654;8.932;2023-07-13T14:09:14;28.20;47.00
7174;DHT22;3628;48.654;8.932;2023-07-13T14:11:41;28.70;47.70
7174;DHT22;3628;48.654;8.932;2023-07-13T14:14:21;29.20;47.50
7174;DHT22;3628;48.654;8.932;2023-07-13T14:16:48;29.30;47.60
7174;DHT22;3628;48.654;8.932;2023-07-13T14:19:18;29.30;47.30
7174;DHT22;3628;48.654;8.932;2023-07-13T14:21:44;29.20;46.70
7174;DHT22;3628;48.654;8.932;2023-07-13T14:24:10;29.30;46.30
7174;DHT22;3628;48.654;8.932;2023-07-13T14:26:37;29.10;46.60
7174;DHT22;3628;48.654;8.932;2023-07-13T14:29:08;29.10;46.60
7174;DHT22;3628;48.654;8.932;2023-07-13T14:31:36;29.10;46.60
7174;DHT22;3628;48.654;8.932;2023-07-13T14:34:02;29.00;48.30
7174;DHT22;3628;48.654;8.932;2023-07-13T14:36:31;28.90;48.20
7174;DHT22;3628;48.654;8.932;2023-07-13T14:38:58;29.00;48.80
7174;DHT22;3628;48.654;8.932;2023-07-13T14:41:24;29.00;49.20
7174;DHT22;3628;48.654;8.932;2023-07-13T14:43:50;28.60;49.10
7174;DHT22;3628;48.654;8.932;2023-07-13T14:46:36;28.10;50.10
7174;DHT22;3628;48.654;8.932;2023-07-13T14:49:21;27.70;51.00
7174;DHT22;3628;48.654;8.932;2023-07-13T14:51:48;27.50;51.80
7174;DHT22;3628;48.654;8.932;2023-07-13T14:54:14;27.40;51.70
7174;DHT22;3628;48.654;8.932;2023-07-13T14:56:40;27.50;52.20
7174;DHT22;3628;48.654;8.932;2023-07-13T14:59:05;27.70;52.00
7174;DHT22;3628;48.654;8.932;2023-07-13T15:01:32;27.80;51.90
7174;DHT22;3628;48.654;8.932;2023-07-13T15:03:58;27.50;52.00
7174;DHT22;3628;48.654;8.932;2023-07-13T15:06:23;27.50;52.70
7174;DHT22;3628;48.654;8.932;2023-07-13T15:08:49;27.60;52.00
7174;DHT22;3628;48.654;8.932;2023-07-13T15:11:15;27.90;51.00
7174;DHT22;3628;48.654;8.932;2023-07-13T15:13:41;27.90;50.70
7174;DHT22;3628;48.654;8.932;2023-07-13T15:16:24;27.70;50.30
7174;DHT22;3628;48.654;8.932;2023-07-13T15:18:50;27.90;51.00
7174;DHT22;3628;48.654;8.932;2023-07-13T15:21:23;28.00;50.60
7174;DHT22;3628;48.654;8.932;2023-07-13T15:23:49;27.80;49.90
7174;DHT22;3628;48.654;8.932;2023-07-13T15:26:16;28.00;50.60
7174;DHT22;3628;48.654;8.932;2023-07-13T15:28:43;28.00;50.00
7174;DHT22;3628;48.654;8.932;2023-07-13T15:31:20;28.00;49.90
7174;DHT22;3628;48.654;8.932;2023-07-13T15:33:48;28.30;49.80
7174;DHT22;3628;48.654;8.932;2023-07-13T15:36:18;28.20;49.80
7174;DHT22;3628;48.654;8.932;2023-07-13T15:38:45;28.20;50.30
7174;DHT22;3628;48.654;8.932;2023-07-13T15:41:20;27.90;50.30
7174;DHT22;3628;48.654;8.932;2023-07-13T15:43:51;27.50;50.90
7174;DHT22;3628;48.654;8.932;2023-07-13T15:46:22;27.20;51.60
7174;DHT22;3628;48.654;8.932;2023-07-13T15:48:51;27.00;51.40
7174;DHT22;3628;48.654;8.932;2023-07-13T15:51:28;26.80;51.80
7174;DHT22;3628;48.654;8.932;2023-07-13T15:53:58;27.30;52.30
7174;DHT22;3628;48.654;8.932;2023-07-13T15:56:27;27.10;51.70
7174;DHT22;3628;48.654;8.932;2023-07-13T15:58:54;27.00;51.50
7174;DHT22;3628;48.654;8.932;2023-07-13T16:01:21;27.00;51.60
7174;DHT22;3628;48.654;8.932;2023-07-13T16:03:47;27.00;51.10
7174;DHT22;3628;48.654;8.932;2023-07-13T16:06:26;26.80;51.00
7174;DHT22;3628;48.654;8.932;2023-07-13T16:08:54;26.60;51.90
7174;DHT22;3628;48.654;8.932;2023-07-13T16:11:25;26.50;52.50
7174;DHT22;3628;48.654;8.932;2023-07-13T16:13:52;27.00;52.60
7174;DHT22;3628;48.654;8.932;2023-07-13T16:16:29;27.60;51.80
7174;DHT22;3628;48.654;8.932;2023-07-13T16:18:56;28.10;50.80
7174;DHT22;3628;48.654;8.932;2023-07-13T16:21:23;28.70;50.50
7174;DHT22;3628;48.654;8.932;2023-07-13T16:23:50;28.90;49.80
7174;DHT22;3628;48.654;8.932;2023-07-13T16:26:27;28.90;48.90
7174;DHT22;3628;48.654;8.932;2023-07-13T16:28:54;28.90;48.10
7174;DHT22;3628;48.654;8.932;2023-07-13T16:31:32;28.60;48.30
7174;DHT22;3628;48.654;8.932;2023-07-13T16:33:58;28.90;48.60
7174;DHT22;3628;48.654;8.932;2023-07-13T16:36:27;29.00;47.80
7174;DHT22;3628;48.654;8.932;2023-07-13T16:38:54;29.00;47.50
7174;DHT22;3628;48.654;8.932;2023-07-13T16:41:19;28.60;47.90
7174;DHT22;3628;48.654;8.932;2023-07-13T16:43:45;28.50;48.00